sensor_id;sensor_type;location;lat;lon;timestamp;pressure;altitude;pressure_sealevel;temperature;humidity
61488;BME280;47351;53.326;-6.298;2024-01-10T00:01:33;103246.02;;;4.00;77.82
61488;BME280;47351;53.326;-6.298;2024-01-10T00:04:21;103243.62;;;3.98;77.32
61488;BME280;47351;53.326;-6.298;2024-01-10T00:07:10;103239.84;;;3.95;77.21
61488;BME280;47351;53.326;-6.298;2024-01-10T00:09:58;103237.52;;;3.91;77.23
61488;BME280;47351;53.326;-6.298;2024-01-10T00:12:48;103237.17;;;3.85;77.46
61488;BME280;47351;53.326;-6.298;2024-01-10T00:15:37;103243.14;;;3.81;77.68
61488;BME280;47351;53.326;-6.298;2024-01-10T00:18:25;103244.35;;;3.77;77.96
61488;BME280;47351;53.326;-6.298;2024-01-10T00:21:14;103237.73;;;3.74;78.20
61488;BME280;47351;53.326;-6.298;2024-01-10T00:24:02;103235.42;;;3.74;78.46
61488;BME280;47351;53.326;-6.298;2024-01-10T00:26:51;103233.79;;;3.76;78.50
61488;BME280;47351;53.326;-6.298;2024-01-10T00:29:39;103232.64;;;3.79;78.18
61488;BME280;47351;53.326;-6.298;2024-01-10T00:32:28;103234.86;;;3.81;77.89
61488;BME280;47351;53.326;-6.298;2024-01-10T00:35:17;103236.94;;;3.82;77.79
61488;BME280;47351;53.326;-6.298;2024-01-10T00:38:05;103237.40;;;3.84;77.75
61488;BME280;47351;53.326;-6.298;2024-01-10T00:40:54;103238.08;;;3.85;77.55
61488;BME280;47351;53.326;-6.298;2024-01-10T00:43:44;103240.73;;;3.85;77.49
61488;BME280;47351;53.326;-6.298;2024-01-10T00:46:32;103236.67;;;3.84;77.45
61488;BME280;47351;53.326;-6.298;2024-01-10T00:49:21;103242.19;;;3.84;77.27
61488;BME280;47351;53.326;-6.298;2024-01-10T00:52:09;103244.36;;;3.82;77.18
61488;BME280;47351;53.326;-6.298;2024-01-10T00:54:58;103239.44;;;3.81;77.14
61488;BME280;47351;53.326;-6.298;2024-01-10T00:57:49;103243.17;;;3.80;77.19
61488;BME280;47351;53.326;-6.298;2024-01-10T01:00:38;103245.85;;;3.80;77.19
61488;BME280;47351;53.326;-6.298;2024-01-10T01:03:27;103239.15;;;3.80;77.23
61488;BME280;47351;53.326;-6.298;2024-01-10T01:06:15;103235.63;;;3.79;77.05
61488;BME280;47351;53.326;-6.298;2024-01-10T01:09:04;103234.93;;;3.79;76.86
61488;BME280;47351;53.326;-6.298;2024-01-10T01:11:52;103230.38;;;3.78;76.81
61488;BME280;47351;53.326;-6.298;2024-01-10T01:14:41;103228.67;;;3.76;76.97
61488;BME280;47351;53.326;-6.298;2024-01-10T01:17:29;103235.41;;;3.75;77.15
61488;BME280;47351;53.326;-6.298;2024-01-10T01:20:18;103231.73;;;3.74;77.36
61488;BME280;47351;53.326;-6.298;2024-01-10T01:23:06;103222.87;;;3.75;77.47
61488;BME280;47351;53.326;-6.298;2024-01-10T01:25:55;103218.96;;;3.75;77.64
61488;BME280;47351;53.326;-6.298;2024-01-10T01:28:44;103213.28;;;3.76;77.65
61488;BME280;47351;53.326;-6.298;2024-01-10T01:31:32;103212.77;;;3.76;77.64
61488;BME280;47351;53.326;-6.298;2024-01-10T01:34:21;103210.16;;;3.75;77.71
61488;BME280;47351;53.326;-6.298;2024-01-10T01:37:09;103210.76;;;3.73;77.78
61488;BME280;47351;53.326;-6.298;2024-01-10T01:39:58;103208.03;;;3.70;77.75
61488;BME280;47351;53.326;-6.298;2024-01-10T01:42:46;103205.33;;;3.66;77.88
61488;BME280;47351;53.326;-6.298;2024-01-10T01:45:35;103206.89;;;3.62;78.07
61488;BME280;47351;53.326;-6.298;2024-01-10T01:48:24;103211.09;;;3.58;78.07
61488;BME280;47351;53.326;-6.298;2024-01-10T01:51:13;103211.88;;;3.55;78.10
61488;BME280;47351;53.326;-6.298;2024-01-10T01:54:02;103208.95;;;3.53;78.03
61488;BME280;47351;53.326;-6.298;2024-01-10T01:56:51;103208.77;;;3.53;78.11
61488;BME280;47351;53.326;-6.298;2024-01-10T01:59:39;103210.02;;;3.53;78.16
61488;BME280;47351;53.326;-6.298;2024-01-10T02:02:28;103210.66;;;3.54;78.12
61488;BME280;47351;53.326;-6.298;2024-01-10T02:05:17;103207.77;;;3.56;78.13
61488;BME280;47351;53.326;-6.298;2024-01-10T02:08:06;103208.04;;;3.59;78.20
61488;BME280;47351;53.326;-6.298;2024-01-10T02:10:55;103208.11;;;3.62;78.22
61488;BME280;47351;53.326;-6.298;2024-01-10T02:13:43;103207.09;;;3.66;78.25
61488;BME280;47351;53.326;-6.298;2024-01-10T02:16:32;103213.70;;;3.69;78.09
61488;BME280;47351;53.326;-6.298;2024-01-10T02:19:21;103214.85;;;3.71;77.99
61488;BME280;47351;53.326;-6.298;2024-01-10T02:22:10;103217.82;;;3.73;78.04
61488;BME280;47351;53.326;-6.298;2024-01-10T02:24:59;103216.15;;;3.76;78.21
61488;BME280;47351;53.326;-6.298;2024-01-10T02:27:47;103223.48;;;3.77;78.21
61488;BME280;47351;53.326;-6.298;2024-01-10T02:30:36;103227.33;;;3.79;78.12
61488;BME280;47351;53.326;-6.298;2024-01-10T02:33:24;103232.92;;;3.80;77.99
61488;BME280;47351;53.326;-6.298;2024-01-10T02:36:13;103233.83;;;3.80;77.93
61488;BME280;47351;53.326;-6.298;2024-01-10T02:39:01;103230.98;;;3.81;77.91
61488;BME280;47351;53.326;-6.298;2024-01-10T02:41:50;103234.30;;;3.81;77.80
61488;BME280;47351;53.326;-6.298;2024-01-10T02:44:38;103232.84;;;3.83;77.66
61488;BME280;47351;53.326;-6.298;2024-01-10T02:47:27;103230.13;;;3.85;77.63
61488;BME280;47351;53.326;-6.298;2024-01-10T02:50:17;103229.45;;;3.89;77.57
61488;BME280;47351;53.326;-6.298;2024-01-10T02:53:05;103228.96;;;3.93;77.43
61488;BME280;47351;53.326;-6.298;2024-01-10T02:55:54;103225.48;;;3.96;77.37
61488;BME280;47351;53.326;-6.298;2024-01-10T02:58:42;103221.16;;;3.99;77.22
61488;BME280;47351;53.326;-6.298;2024-01-10T03:01:31;103220.42;;;3.99;77.07
61488;BME280;47351;53.326;-6.298;2024-01-10T03:04:20;103217.95;;;4.00;77.22
61488;BME280;47351;53.326;-6.298;2024-01-10T03:07:08;103215.31;;;3.99;77.31
61488;BME280;47351;53.326;-6.298;2024-01-10T03:09:57;103221.02;;;3.98;77.27
61488;BME280;47351;53.326;-6.298;2024-01-10T03:12:45;103219.80;;;3.97;77.03
61488;BME280;47351;53.326;-6.298;2024-01-10T03:15:34;103221.83;;;3.95;76.85
61488;BME280;47351;53.326;-6.298;2024-01-10T03:18:23;103223.27;;;3.93;76.83
61488;BME280;47351;53.326;-6.298;2024-01-10T03:21:12;103223.88;;;3.92;77.05
61488;BME280;47351;53.326;-6.298;2024-01-10T03:24:00;103222.20;;;3.89;77.15
61488;BME280;47351;53.326;-6.298;2024-01-10T03:26:49;103225.96;;;3.88;77.34
61488;BME280;47351;53.326;-6.298;2024-01-10T03:29:37;103224.71;;;3.88;77.36
61488;BME280;47351;53.326;-6.298;2024-01-10T03:32:26;103232.24;;;3.90;77.40
61488;BME280;47351;53.326;-6.298;2024-01-10T03:35:15;103236.95;;;3.92;77.49
61488;BME280;47351;53.326;-6.298;2024-01-10T03:38:04;103239.17;;;3.94;77.59
61488;BME280;47351;53.326;-6.298;2024-01-10T03:40:52;103238.79;;;3.95;77.73
61488;BME280;47351;53.326;-6.298;2024-01-10T03:43:41;103238.92;;;3.96;77.87
61488;BME280;47351;53.326;-6.298;2024-01-10T03:46:30;103237.67;;;3.96;77.84
61488;BME280;47351;53.326;-6.298;2024-01-10T03:49:18;103240.02;;;3.95;77.82
61488;BME280;47351;53.326;-6.298;2024-01-10T03:52:07;103241.09;;;3.95;77.91
61488;BME280;47351;53.326;-6.298;2024-01-10T03:54:56;103242.68;;;3.94;78.03
61488;BME280;47351;53.326;-6.298;2024-01-10T03:57:45;103235.64;;;3.94;78.11
61488;BME280;47351;53.326;-6.298;2024-01-10T04:00:33;103235.70;;;3.92;78.04
61488;BME280;47351;53.326;-6.298;2024-01-10T04:03:22;103226.63;;;3.89;78.07
61488;BME280;47351;53.326;-6.298;2024-01-10T04:06:11;103227.27;;;3.86;78.25
61488;BME280;47351;53.326;-6.298;2024-01-10T04:09:02;103230.02;;;3.83;78.30
61488;BME280;47351;53.326;-6.298;2024-01-10T04:11:50;103225.70;;;3.80;78.50
61488;BME280;47351;53.326;-6.298;2024-01-10T04:14:39;103225.08;;;3.77;78.77
61488;BME280;47351;53.326;-6.298;2024-01-10T04:17:27;103219.80;;;3.77;78.96
61488;BME280;47351;53.326;-6.298;2024-01-10T04:20:16;103212.23;;;3.77;78.98
61488;BME280;47351;53.326;-6.298;2024-01-10T04:23:05;103204.30;;;3.76;78.98
61488;BME280;47351;53.326;-6.298;2024-01-10T04:25:54;103202.02;;;3.75;79.10
61488;BME280;47351;53.326;-6.298;2024-01-10T04:28:42;103195.77;;;3.78;79.37
61488;BME280;47351;53.326;-6.298;2024-01-10T04:31:31;103189.79;;;3.82;79.48
61488;BME280;47351;53.326;-6.298;2024-01-10T04:34:19;103187.17;;;3.86;79.54
61488;BME280;47351;53.326;-6.298;2024-01-10T04:37:08;103192.70;;;3.89;79.61
61488;BME280;47351;53.326;-6.298;2024-01-10T04:39:57;103194.89;;;3.92;79.58
61488;BME280;47351;53.326;-6.298;2024-01-10T04:42:46;103198.38;;;3.93;79.51
61488;BME280;47351;53.326;-6.298;2024-01-10T04:45:34;103203.34;;;3.93;79.62
61488;BME280;47351;53.326;-6.298;2024-01-10T04:48:23;103196.05;;;3.89;79.73
61488;BME280;47351;53.326;-6.298;2024-01-10T04:51:11;103200.16;;;3.88;79.83
61488;BME280;47351;53.326;-6.298;2024-01-10T04:54:00;103205.49;;;3.87;79.78
61488;BME280;47351;53.326;-6.298;2024-01-10T04:56:48;103200.92;;;3.86;79.82
61488;BME280;47351;53.326;-6.298;2024-01-10T04:59:37;103199.66;;;3.87;79.92
61488;BME280;47351;53.326;-6.298;2024-01-10T05:02:25;103204.89;;;3.89;79.83
61488;BME280;47351;53.326;-6.298;2024-01-10T05:05:14;103208.30;;;3.92;79.80
61488;BME280;47351;53.326;-6.298;2024-01-10T05:08:03;103209.58;;;3.96;79.86
61488;BME280;47351;53.326;-6.298;2024-01-10T05:10:52;103209.77;;;4.01;79.98
61488;BME280;47351;53.326;-6.298;2024-01-10T05:13:40;103203.75;;;4.06;79.99
61488;BME280;47351;53.326;-6.298;2024-01-10T05:16:29;103205.20;;;4.10;80.07
61488;BME280;47351;53.326;-6.298;2024-01-10T05:19:18;103200.67;;;4.13;80.11
61488;BME280;47351;53.326;-6.298;2024-01-10T05:22:06;103197.63;;;4.14;80.04
61488;BME280;47351;53.326;-6.298;2024-01-10T05:24:55;103196.40;;;4.14;79.95
61488;BME280;47351;53.326;-6.298;2024-01-10T05:27:43;103195.55;;;4.13;79.96
61488;BME280;47351;53.326;-6.298;2024-01-10T05:30:32;103192.02;;;4.12;79.94
61488;BME280;47351;53.326;-6.298;2024-01-10T05:33:21;103184.98;;;4.12;79.98
61488;BME280;47351;53.326;-6.298;2024-01-10T05:36:09;103183.97;;;4.11;80.06
61488;BME280;47351;53.326;-6.298;2024-01-10T05:38:59;103190.89;;;4.10;80.17
61488;BME280;47351;53.326;-6.298;2024-01-10T05:41:47;103193.73;;;4.09;80.34
61488;BME280;47351;53.326;-6.298;2024-01-10T05:44:36;103194.69;;;4.08;80.44
61488;BME280;47351;53.326;-6.298;2024-01-10T05:47:24;103191.55;;;4.07;80.64
61488;BME280;47351;53.326;-6.298;2024-01-10T05:50:14;103189.18;;;4.08;80.72
61488;BME280;47351;53.326;-6.298;2024-01-10T05:53:03;103190.20;;;4.10;80.70
61488;BME280;47351;53.326;-6.298;2024-01-10T05:55:51;103184.82;;;4.12;80.70
61488;BME280;47351;53.326;-6.298;2024-01-10T05:58:40;103188.38;;;4.16;80.77
61488;BME280;47351;53.326;-6.298;2024-01-10T06:01:29;103191.71;;;4.22;80.81
61488;BME280;47351;53.326;-6.298;2024-01-10T06:04:17;103182.77;;;4.25;80.80
61488;BME280;47351;53.326;-6.298;2024-01-10T06:07:06;103179.69;;;4.27;80.70
61488;BME280;47351;53.326;-6.298;2024-01-10T06:09:54;103184.20;;;4.29;80.54
61488;BME280;47351;53.326;-6.298;2024-01-10T06:12:43;103185.57;;;4.30;80.55
61488;BME280;47351;53.326;-6.298;2024-01-10T06:15:31;103187.09;;;4.32;80.84
61488;BME280;47351;53.326;-6.298;2024-01-10T06:18:20;103193.77;;;4.33;80.98
61488;BME280;47351;53.326;-6.298;2024-01-10T06:21:08;103186.67;;;4.33;81.01
61488;BME280;47351;53.326;-6.298;2024-01-10T06:23:58;103188.09;;;4.34;80.92
61488;BME280;47351;53.326;-6.298;2024-01-10T06:26:46;103186.18;;;4.32;80.70
61488;BME280;47351;53.326;-6.298;2024-01-10T06:29:37;103181.61;;;4.31;80.54
61488;BME280;47351;53.326;-6.298;2024-01-10T06:32:25;103176.10;;;4.33;80.40
61488;BME280;47351;53.326;-6.298;2024-01-10T06:35:14;103174.08;;;4.35;80.49
61488;BME280;47351;53.326;-6.298;2024-01-10T06:38:03;103177.85;;;4.38;80.54
61488;BME280;47351;53.326;-6.298;2024-01-10T06:40:52;103176.46;;;4.42;80.71
61488;BME280;47351;53.326;-6.298;2024-01-10T06:43:41;103176.50;;;4.46;80.71
61488;BME280;47351;53.326;-6.298;2024-01-10T06:46:29;103174.62;;;4.49;80.82
61488;BME280;47351;53.326;-6.298;2024-01-10T06:49:19;103173.64;;;4.51;80.75
61488;BME280;47351;53.326;-6.298;2024-01-10T06:52:08;103176.44;;;4.52;80.59
61488;BME280;47351;53.326;-6.298;2024-01-10T06:54:57;103175.89;;;4.52;80.54
61488;BME280;47351;53.326;-6.298;2024-01-10T06:57:45;103180.55;;;4.51;80.51
61488;BME280;47351;53.326;-6.298;2024-01-10T07:00:36;103186.64;;;4.49;80.51
61488;BME280;47351;53.326;-6.298;2024-01-10T07:03:25;103192.52;;;4.47;80.67
61488;BME280;47351;53.326;-6.298;2024-01-10T07:06:14;103192.88;;;4.47;80.84
61488;BME280;47351;53.326;-6.298;2024-01-10T07:09:03;103194.23;;;4.49;80.88
61488;BME280;47351;53.326;-6.298;2024-01-10T07:11:53;103192.04;;;4.51;80.93
61488;BME280;47351;53.326;-6.298;2024-01-10T07:14:41;103191.39;;;4.54;81.07
61488;BME280;47351;53.326;-6.298;2024-01-10T07:17:30;103195.86;;;4.57;81.09
61488;BME280;47351;53.326;-6.298;2024-01-10T07:20:19;103196.26;;;4.61;81.13
61488;BME280;47351;53.326;-6.298;2024-01-10T07:23:07;103198.59;;;4.64;81.19
61488;BME280;47351;53.326;-6.298;2024-01-10T07:25:58;103198.52;;;4.67;81.03
61488;BME280;47351;53.326;-6.298;2024-01-10T07:28:47;103199.03;;;4.67;80.92
61488;BME280;47351;53.326;-6.298;2024-01-10T07:31:35;103203.97;;;4.68;80.87
61488;BME280;47351;53.326;-6.298;2024-01-10T07:34:24;103208.56;;;4.68;80.81
61488;BME280;47351;53.326;-6.298;2024-01-10T07:37:13;103214.77;;;4.68;80.57
61488;BME280;47351;53.326;-6.298;2024-01-10T07:40:05;103213.58;;;4.66;80.44
61488;BME280;47351;53.326;-6.298;2024-01-10T07:42:54;103206.86;;;4.66;80.26
61488;BME280;47351;53.326;-6.298;2024-01-10T07:45:43;103201.77;;;4.65;80.26
61488;BME280;47351;53.326;-6.298;2024-01-10T07:48:31;103199.27;;;4.65;80.52
61488;BME280;47351;53.326;-6.298;2024-01-10T07:51:20;103195.88;;;4.66;80.78
61488;BME280;47351;53.326;-6.298;2024-01-10T07:54:09;103200.54;;;4.70;80.83
61488;BME280;47351;53.326;-6.298;2024-01-10T07:56:58;103206.30;;;4.71;80.86
61488;BME280;47351;53.326;-6.298;2024-01-10T07:59:46;103209.04;;;4.74;80.85
61488;BME280;47351;53.326;-6.298;2024-01-10T08:02:36;103205.71;;;4.77;80.99
61488;BME280;47351;53.326;-6.298;2024-01-10T08:05:24;103212.08;;;4.82;81.07
61488;BME280;47351;53.326;-6.298;2024-01-10T08:08:13;103211.04;;;4.86;81.01
61488;BME280;47351;53.326;-6.298;2024-01-10T08:11:01;103208.47;;;4.89;81.07
61488;BME280;47351;53.326;-6.298;2024-01-10T08:13:50;103207.89;;;4.90;80.98
61488;BME280;47351;53.326;-6.298;2024-01-10T08:16:39;103207.83;;;4.91;81.01
61488;BME280;47351;53.326;-6.298;2024-01-10T08:19:27;103209.77;;;4.91;80.94
61488;BME280;47351;53.326;-6.298;2024-01-10T08:22:16;103214.55;;;4.92;80.89
61488;BME280;47351;53.326;-6.298;2024-01-10T08:25:05;103218.15;;;4.90;80.77
61488;BME280;47351;53.326;-6.298;2024-01-10T08:27:54;103219.83;;;4.88;80.40
61488;BME280;47351;53.326;-6.298;2024-01-10T08:30:44;103222.39;;;4.85;79.96
61488;BME280;47351;53.326;-6.298;2024-01-10T08:33:33;103220.88;;;4.83;79.56
61488;BME280;47351;53.326;-6.298;2024-01-10T08:36:22;103227.73;;;4.84;79.42
61488;BME280;47351;53.326;-6.298;2024-01-10T08:39:12;103222.33;;;4.87;79.41
61488;BME280;47351;53.326;-6.298;2024-01-10T08:42:00;103224.87;;;4.90;79.44
61488;BME280;47351;53.326;-6.298;2024-01-10T08:44:49;103229.31;;;4.94;79.54
61488;BME280;47351;53.326;-6.298;2024-01-10T08:47:37;103229.12;;;4.99;79.53
61488;BME280;47351;53.326;-6.298;2024-01-10T08:50:26;103228.38;;;5.04;79.53
61488;BME280;47351;53.326;-6.298;2024-01-10T08:53:14;103231.96;;;5.07;79.24
61488;BME280;47351;53.326;-6.298;2024-01-10T08:56:04;103239.62;;;5.11;79.14
61488;BME280;47351;53.326;-6.298;2024-01-10T08:58:53;103238.83;;;5.13;79.06
61488;BME280;47351;53.326;-6.298;2024-01-10T09:01:41;103244.80;;;5.15;78.87
61488;BME280;47351;53.326;-6.298;2024-01-10T09:04:30;103242.86;;;5.15;78.73
61488;BME280;47351;53.326;-6.298;2024-01-10T09:07:19;103238.06;;;5.15;78.72
61488;BME280;47351;53.326;-6.298;2024-01-10T09:10:09;103236.48;;;5.15;78.40
61488;BME280;47351;53.326;-6.298;2024-01-10T09:15:46;103237.02;;;5.14;77.75
61488;BME280;47351;53.326;-6.298;2024-01-10T09:18:34;103237.03;;;5.14;77.79
61488;BME280;47351;53.326;-6.298;2024-01-10T09:21:23;103231.17;;;5.15;77.93
61488;BME280;47351;53.326;-6.298;2024-01-10T09:24:12;103235.36;;;5.16;78.11
61488;BME280;47351;53.326;-6.298;2024-01-10T09:27:15;103238.23;;;5.19;78.19
61488;BME280;47351;53.326;-6.298;2024-01-10T09:30:05;103238.11;;;5.22;78.38
61488;BME280;47351;53.326;-6.298;2024-01-10T09:32:55;103241.33;;;5.26;78.50
61488;BME280;47351;53.326;-6.298;2024-01-10T09:35:45;103243.05;;;5.31;78.68
61488;BME280;47351;53.326;-6.298;2024-01-10T09:38:35;103245.88;;;5.36;78.86
61488;BME280;47351;53.326;-6.298;2024-01-10T09:41:24;103247.45;;;5.41;79.09
61488;BME280;47351;53.326;-6.298;2024-01-10T09:44:17;103245.88;;;5.45;79.30
61488;BME280;47351;53.326;-6.298;2024-01-10T09:47:06;103244.49;;;5.48;79.26
61488;BME280;47351;53.326;-6.298;2024-01-10T09:49:54;103249.53;;;5.51;79.17
61488;BME280;47351;53.326;-6.298;2024-01-10T09:52:45;103248.06;;;5.51;78.81
61488;BME280;47351;53.326;-6.298;2024-01-10T09:55:38;103247.52;;;5.52;78.69
61488;BME280;47351;53.326;-6.298;2024-01-10T09:58:26;103248.02;;;5.53;78.54
61488;BME280;47351;53.326;-6.298;2024-01-10T10:01:15;103247.09;;;5.54;78.34
61488;BME280;47351;53.326;-6.298;2024-01-10T10:04:05;103249.66;;;5.56;77.86
61488;BME280;47351;53.326;-6.298;2024-01-10T10:06:59;103247.56;;;5.60;77.76
61488;BME280;47351;53.326;-6.298;2024-01-10T10:09:48;103244.35;;;5.65;77.40
61488;BME280;47351;53.326;-6.298;2024-01-10T10:12:44;103244.17;;;5.69;77.13
61488;BME280;47351;53.326;-6.298;2024-01-10T10:15:32;103247.84;;;5.74;76.92
61488;BME280;47351;53.326;-6.298;2024-01-10T10:18:21;103244.22;;;5.80;76.67
61488;BME280;47351;53.326;-6.298;2024-01-10T10:21:11;103249.96;;;5.87;76.57
61488;BME280;47351;53.326;-6.298;2024-01-10T10:24:00;103248.41;;;5.90;76.60
61488;BME280;47351;53.326;-6.298;2024-01-10T10:26:49;103251.52;;;5.92;76.83
61488;BME280;47351;53.326;-6.298;2024-01-10T10:29:38;103251.61;;;5.95;76.87
61488;BME280;47351;53.326;-6.298;2024-01-10T10:32:27;103252.92;;;5.97;76.68
61488;BME280;47351;53.326;-6.298;2024-01-10T10:35:16;103252.21;;;6.01;76.73
61488;BME280;47351;53.326;-6.298;2024-01-10T10:38:24;103249.90;;;6.05;76.54
61488;BME280;47351;53.326;-6.298;2024-01-10T10:41:13;103243.54;;;6.09;76.19
61488;BME280;47351;53.326;-6.298;2024-01-10T10:44:02;103244.25;;;6.14;76.09
61488;BME280;47351;53.326;-6.298;2024-01-10T10:46:53;103244.41;;;6.22;76.00
61488;BME280;47351;53.326;-6.298;2024-01-10T10:49:58;103243.23;;;6.29;76.00
61488;BME280;47351;53.326;-6.298;2024-01-10T10:52:50;103241.59;;;6.34;75.98
61488;BME280;47351;53.326;-6.298;2024-01-10T10:55:39;103240.23;;;6.36;75.72
61488;BME280;47351;53.326;-6.298;2024-01-10T10:58:28;103245.01;;;6.40;75.48
61488;BME280;47351;53.326;-6.298;2024-01-10T11:01:17;103245.16;;;6.45;75.31
61488;BME280;47351;53.326;-6.298;2024-01-10T11:04:06;103242.96;;;6.50;75.13
61488;BME280;47351;53.326;-6.298;2024-01-10T11:06:55;103239.59;;;6.54;75.22
61488;BME280;47351;53.326;-6.298;2024-01-10T11:09:44;103231.67;;;6.57;74.97
61488;BME280;47351;53.326;-6.298;2024-01-10T11:12:38;103239.02;;;6.59;74.78
61488;BME280;47351;53.326;-6.298;2024-01-10T11:15:43;103240.80;;;6.62;74.63
61488;BME280;47351;53.326;-6.298;2024-01-10T11:18:42;103242.13;;;6.68;74.79
61488;BME280;47351;53.326;-6.298;2024-01-10T11:21:37;103244.47;;;6.72;74.79
61488;BME280;47351;53.326;-6.298;2024-01-10T11:24:31;103241.36;;;6.70;74.57
61488;BME280;47351;53.326;-6.298;2024-01-10T11:27:20;103237.75;;;6.63;74.63
61488;BME280;47351;53.326;-6.298;2024-01-10T11:30:11;103238.64;;;6.56;74.90
61488;BME280;47351;53.326;-6.298;2024-01-10T11:33:01;103233.53;;;6.59;74.89
61488;BME280;47351;53.326;-6.298;2024-01-10T11:38:58;103234.16;;;6.61;75.09
61488;BME280;47351;53.326;-6.298;2024-01-10T11:41:49;103234.66;;;6.69;75.23
61488;BME280;47351;53.326;-6.298;2024-01-10T11:44:48;103234.77;;;6.82;75.27
61488;BME280;47351;53.326;-6.298;2024-01-10T11:47:38;103232.21;;;6.90;75.35
61488;BME280;47351;53.326;-6.298;2024-01-10T11:50:27;103234.13;;;6.91;75.43
61488;BME280;47351;53.326;-6.298;2024-01-10T11:53:21;103234.48;;;6.88;75.46
61488;BME280;47351;53.326;-6.298;2024-01-10T11:56:26;103232.65;;;6.85;75.69
61488;BME280;47351;53.326;-6.298;2024-01-10T11:59:31;103233.30;;;6.98;75.45
61488;BME280;47351;53.326;-6.298;2024-01-10T12:02:20;103227.60;;;7.35;75.22
61488;BME280;47351;53.326;-6.298;2024-01-10T12:05:09;103224.02;;;7.61;74.79
61488;BME280;47351;53.326;-6.298;2024-01-10T12:07:58;103214.70;;;7.90;73.92
61488;BME280;47351;53.326;-6.298;2024-01-10T12:10:46;103217.13;;;8.12;73.17
61488;BME280;47351;53.326;-6.298;2024-01-10T12:13:35;103218.73;;;8.31;72.72
61488;BME280;47351;53.326;-6.298;2024-01-10T12:16:24;103214.08;;;8.32;72.30
61488;BME280;47351;53.326;-6.298;2024-01-10T12:19:12;103209.83;;;8.25;71.97
61488;BME280;47351;53.326;-6.298;2024-01-10T12:22:01;103206.11;;;8.31;71.54
61488;BME280;47351;53.326;-6.298;2024-01-10T12:24:52;103200.89;;;8.53;71.03
61488;BME280;47351;53.326;-6.298;2024-01-10T12:27:41;103193.80;;;8.43;69.70
61488;BME280;47351;53.326;-6.298;2024-01-10T12:30:29;103197.67;;;8.26;69.95
61488;BME280;47351;53.326;-6.298;2024-01-10T12:33:22;103196.35;;;8.11;70.06
61488;BME280;47351;53.326;-6.298;2024-01-10T12:36:11;103197.35;;;7.99;70.14
61488;BME280;47351;53.326;-6.298;2024-01-10T12:39:00;103196.32;;;8.25;69.99
61488;BME280;47351;53.326;-6.298;2024-01-10T12:41:48;103193.33;;;9.42;68.33
61488;BME280;47351;53.326;-6.298;2024-01-10T12:44:40;103196.66;;;9.49;67.86
61488;BME280;47351;53.326;-6.298;2024-01-10T12:47:31;103201.02;;;9.30;67.48
61488;BME280;47351;53.326;-6.298;2024-01-10T12:50:23;103198.05;;;8.94;67.86
61488;BME280;47351;53.326;-6.298;2024-01-10T12:53:12;103193.58;;;8.63;68.08
61488;BME280;47351;53.326;-6.298;2024-01-10T12:56:01;103190.29;;;8.38;68.51
61488;BME280;47351;53.326;-6.298;2024-01-10T12:58:49;103196.94;;;8.23;68.87
61488;BME280;47351;53.326;-6.298;2024-01-10T13:01:38;103200.83;;;8.14;69.17
61488;BME280;47351;53.326;-6.298;2024-01-10T13:04:26;103198.09;;;7.98;69.21
61488;BME280;47351;53.326;-6.298;2024-01-10T13:07:15;103200.82;;;7.80;69.51
61488;BME280;47351;53.326;-6.298;2024-01-10T13:10:04;103200.98;;;7.63;69.73
61488;BME280;47351;53.326;-6.298;2024-01-10T13:12:53;103199.05;;;7.48;70.10
61488;BME280;47351;53.326;-6.298;2024-01-10T13:15:42;103199.04;;;7.37;70.16
61488;BME280;47351;53.326;-6.298;2024-01-10T13:18:30;103198.01;;;7.30;70.23
61488;BME280;47351;53.326;-6.298;2024-01-10T13:21:19;103199.55;;;7.24;69.78
61488;BME280;47351;53.326;-6.298;2024-01-10T13:24:08;103196.45;;;7.18;69.86
61488;BME280;47351;53.326;-6.298;2024-01-10T13:26:57;103196.50;;;7.13;69.92
61488;BME280;47351;53.326;-6.298;2024-01-10T13:29:45;103198.13;;;7.09;69.78
61488;BME280;47351;53.326;-6.298;2024-01-10T13:32:34;103199.08;;;7.04;69.64
61488;BME280;47351;53.326;-6.298;2024-01-10T13:35:23;103198.52;;;7.01;69.74
61488;BME280;47351;53.326;-6.298;2024-01-10T13:38:11;103198.42;;;7.00;69.88
61488;BME280;47351;53.326;-6.298;2024-01-10T13:41:00;103196.96;;;6.96;69.67
61488;BME280;47351;53.326;-6.298;2024-01-10T13:43:49;103195.69;;;6.93;69.92
61488;BME280;47351;53.326;-6.298;2024-01-10T13:46:37;103193.63;;;6.92;70.00
61488;BME280;47351;53.326;-6.298;2024-01-10T13:49:26;103191.14;;;6.96;70.13
61488;BME280;47351;53.326;-6.298;2024-01-10T13:52:15;103190.17;;;7.05;70.29
61488;BME280;47351;53.326;-6.298;2024-01-10T13:55:04;103187.86;;;7.12;70.63
61488;BME280;47351;53.326;-6.298;2024-01-10T13:57:52;103181.25;;;7.20;71.24
61488;BME280;47351;53.326;-6.298;2024-01-10T14:00:41;103177.96;;;7.26;71.54
61488;BME280;47351;53.326;-6.298;2024-01-10T14:03:32;103175.23;;;7.20;71.80
61488;BME280;47351;53.326;-6.298;2024-01-10T14:06:21;103171.84;;;7.09;71.73
61488;BME280;47351;53.326;-6.298;2024-01-10T14:09:10;103171.81;;;6.99;71.70
61488;BME280;47351;53.326;-6.298;2024-01-10T14:11:59;103169.20;;;6.94;71.87
61488;BME280;47351;53.326;-6.298;2024-01-10T14:14:47;103167.80;;;6.90;72.05
61488;BME280;47351;53.326;-6.298;2024-01-10T14:17:36;103167.03;;;6.88;72.13
61488;BME280;47351;53.326;-6.298;2024-01-10T14:20:24;103170.73;;;6.88;72.34
61488;BME280;47351;53.326;-6.298;2024-01-10T14:23:13;103166.55;;;6.90;72.57
61488;BME280;47351;53.326;-6.298;2024-01-10T14:26:02;103164.63;;;6.89;72.51
61488;BME280;47351;53.326;-6.298;2024-01-10T14:28:53;103163.70;;;6.87;72.56
61488;BME280;47351;53.326;-6.298;2024-01-10T14:31:43;103160.66;;;6.84;72.55
61488;BME280;47351;53.326;-6.298;2024-01-10T14:34:38;103162.62;;;6.80;72.68
61488;BME280;47351;53.326;-6.298;2024-01-10T14:37:27;103163.08;;;6.81;72.88
61488;BME280;47351;53.326;-6.298;2024-01-10T14:40:15;103162.10;;;6.83;72.89
61488;BME280;47351;53.326;-6.298;2024-01-10T14:43:04;103164.09;;;6.82;72.83
61488;BME280;47351;53.326;-6.298;2024-01-10T14:45:52;103161.70;;;6.77;72.37
61488;BME280;47351;53.326;-6.298;2024-01-10T14:48:41;103159.25;;;6.72;72.25
61488;BME280;47351;53.326;-6.298;2024-01-10T14:51:30;103158.76;;;6.71;72.43